Time;durP1;ratioP1;P1;durP2;ratioP2;P2;SDS_P1;SDS_P2;PMS_P1;PMS_P2;Temp;Humidity;BMP_temperature;BMP_pressure;BME280_temperature;BME280_humidity;BME280_pressure;Samples;Min_cycle;Max_cycle;Signal;HPM_P1;HPM_P2
2021/08/03 00:01:10;;;;;;;6.53;4.05;;;23.40;94.40;;;;;;5095079;28;20474;-81
2021/08/03 00:03:37;;;;;;;4.13;3.83;;;23.40;94.10;;;;;;5095402;28;20099;-83
2021/08/03 00:06:14;;;;;;;5.85;3.83;;;23.40;94.20;;;;;;5095076;28;20486;-79
2021/08/03 00:08:44;;;;;;;4.55;3.45;;;23.30;93.90;;;;;;5095061;28;20024;-77
2021/08/03 00:11:10;;;;;;;5.68;3.63;;;23.40;93.60;;;;;;5095300;28;20023;-81
2021/08/03 00:13:37;;;;;;;6.07;3.47;;;23.40;93.20;;;;;;5095432;28;20024;-81
2021/08/03 00:16:09;;;;;;;4.47;3.20;;;23.40;93.10;;;;;;5095494;28;20031;-80
2021/08/03 00:18:39;;;;;;;3.85;3.35;;;23.30;93.10;;;;;;5095169;28;20020;-82
2021/08/03 00:21:07;;;;;;;4.60;3.30;;;23.30;93.10;;;;;;5094814;28;20031;-82
2021/08/03 00:23:33;;;;;;;3.17;2.97;;;23.30;93.00;;;;;;5094754;28;20056;-77
2021/08/03 00:25:59;;;;;;;3.70;3.15;;;23.30;93.10;;;;;;5094478;28;20412;-81
2021/08/03 00:28:24;;;;;;;4.82;3.35;;;23.30;93.10;;;;;;5094623;28;20490;-76
2021/08/03 00:30:51;;;;;;;3.88;3.47;;;23.30;93.20;;;;;;5095503;28;20060;-79
2021/08/03 00:33:17;;;;;;;3.47;3.17;;;23.20;93.10;;;;;;5094552;28;20027;-81
2021/08/03 00:35:47;;;;;;;4.95;3.53;;;23.20;93.20;;;;;;5094307;28;20013;-84
2021/08/03 00:38:12;;;;;;;4.75;3.65;;;23.20;93.20;;;;;;5094501;28;20103;-80
2021/08/03 00:40:49;;;;;;;3.33;3.00;;;23.20;93.40;;;;;;5094703;28;20059;-81
2021/08/03 00:43:15;;;;;;;3.30;2.75;;;23.20;93.20;;;;;;5094892;28;20028;-75
2021/08/03 00:45:41;;;;;;;6.20;2.65;;;23.20;92.10;;;;;;5094583;28;20026;-75
2021/08/03 00:48:06;;;;;;;3.25;2.58;;;23.10;91.90;;;;;;5094384;28;20103;-76
2021/08/03 00:50:32;;;;;;;2.70;2.47;;;23.00;91.70;;;;;;5094693;28;20024;-78
2021/08/03 00:52:58;;;;;;;3.83;2.58;;;22.90;91.90;;;;;;5094493;28;20024;-74
2021/08/03 00:55:23;;;;;;;3.05;2.75;;;22.90;91.70;;;;;;5094651;28;20028;-78
2021/08/03 00:57:50;;;;;;;4.55;2.40;;;22.80;91.60;;;;;;5094360;28;20024;-80
2021/08/03 01:00:16;;;;;;;4.70;2.50;;;22.80;91.50;;;;;;5094258;28;20466;-77
2021/08/03 01:02:42;;;;;;;2.75;2.25;;;22.70;91.70;;;;;;5094336;28;20107;-75
2021/08/03 01:05:08;;;;;;;3.10;2.80;;;22.60;92.20;;;;;;5094513;28;20156;-75
2021/08/03 01:07:37;;;;;;;3.85;2.40;;;22.60;92.20;;;;;;5094331;28;20020;-75
2021/08/03 01:10:16;;;;;;;2.60;2.40;;;22.60;92.30;;;;;;5094562;28;20031;-74
2021/08/03 01:12:48;;;;;;;2.47;2.28;;;22.60;92.30;;;;;;5094646;28;20362;-76
2021/08/03 01:15:30;;;;;;;3.38;2.63;;;22.60;92.50;;;;;;5092893;28;20024;-79
2021/08/03 01:18:10;;;;;;;2.42;2.22;;;22.50;92.60;;;;;;5093872;28;20023;-76
2021/08/03 01:21:00;;;;;;;4.13;2.03;;;22.40;92.50;;;;;;5094567;28;20032;-75
2021/08/03 01:24:05;;;;;;;1.77;1.67;;;22.50;92.00;;;;;;5086294;28;20468;-77
2021/08/03 01:27:15;;;;;;;1.85;1.73;;;22.40;91.50;;;;;;5093852;28;20040;-81
2021/08/03 01:29:45;;;;;;;3.40;1.90;;;22.50;91.10;;;;;;5094054;28;20108;-75
2021/08/03 01:32:11;;;;;;;;;;;22.40;91.60;;;;;;5094058;28;20073;-77
2021/08/03 01:34:39;;;;;;;4.93;2.05;;;22.30;91.80;;;;;;5093986;28;19947;-77
2021/08/03 01:37:06;;;;;;;1.92;1.80;;;22.20;91.90;;;;;;5094089;28;20031;-75
2021/08/03 01:39:35;;;;;;;3.80;1.98;;;22.20;91.90;;;;;;5094317;28;20024;-79
2021/08/03 01:42:04;;;;;;;2.25;2.15;;;22.20;92.20;;;;;;5093921;28;20470;-73
2021/08/03 01:44:32;;;;;;;2.28;2.00;;;22.10;92.50;;;;;;5093976;28;20505;-84
2021/08/03 01:47:00;;;;;;;2.25;2.10;;;22.10;92.90;;;;;;5093543;28;20440;-74
2021/08/03 01:49:26;;;;;;;2.25;2.03;;;22.20;92.80;;;;;;5096689;28;20020;-73
2021/08/03 01:51:53;;;;;;;4.50;2.20;;;22.10;93.00;;;;;;5097361;28;20080;-76
2021/08/03 01:54:20;;;;;;;2.35;2.05;;;22.10;92.90;;;;;;5092306;28;20039;-75
2021/08/03 01:56:47;;;;;;;2.25;1.98;;;22.10;92.40;;;;;;5097690;28;20066;-76
2021/08/03 01:59:14;;;;;;;2.17;2.08;;;22.10;92.60;;;;;;5097652;28;20048;-87
2021/08/03 02:01:41;;;;;;;1.90;1.80;;;22.10;92.80;;;;;;5097751;28;20020;-77
2021/08/03 02:04:07;;;;;;;2.38;2.08;;;22.10;92.70;;;;;;5097911;28;20031;-74
2021/08/03 02:06:35;;;;;;;3.15;2.05;;;22.10;92.70;;;;;;5098013;28;20055;-76
2021/08/03 02:09:01;;;;;;;2.33;1.92;;;22.10;92.10;;;;;;5097820;28;20020;-76
2021/08/03 02:11:35;;;;;;;2.22;1.85;;;22.10;92.10;;;;;;5093681;28;20443;-77
2021/08/03 02:14:01;;;;;;;3.00;1.88;;;22.10;92.40;;;;;;5096561;28;20107;-75
2021/08/03 02:16:27;;;;;;;2.53;2.13;;;22.10;92.60;;;;;;5096901;28;20543;-80
2021/08/03 02:18:53;;;;;;;2.22;2.03;;;22.10;92.50;;;;;;5097745;28;20028;-76
2021/08/03 02:21:21;;;;;;;2.25;2.13;;;22.10;92.50;;;;;;5097300;28;20028;-80
2021/08/03 02:23:48;;;;;;;2.05;1.95;;;22.10;92.60;;;;;;5097223;28;20056;-77
2021/08/03 02:26:14;;;;;;;2.10;2.00;;;22.10;92.60;;;;;;5096948;28;20042;-77
2021/08/03 02:28:40;;;;;;;3.13;2.10;;;22.10;92.60;;;;;;5097181;28;20097;-75
2021/08/03 02:31:23;;;;;;;3.30;2.30;;;22.00;92.50;;;;;;5096977;28;20484;-77
2021/08/03 02:33:53;;;;;;;13.10;2.30;;;22.00;92.60;;;;;;5096859;28;20028;-80
2021/08/03 02:36:20;;;;;;;2.40;2.20;;;22.00;92.70;;;;;;5097148;28;20013;-77
2021/08/03 02:38:50;;;;;;;2.10;2.00;;;22.00;92.70;;;;;;5097063;28;20100;-76
2021/08/03 02:41:17;;;;;;;2.25;2.15;;;21.90;92.70;;;;;;5097073;28;20020;-76
2021/08/03 02:43:45;;;;;;;2.35;2.15;;;22.00;92.60;;;;;;5097307;28;20465;-75
2021/08/03 02:46:14;;;;;;;2.40;2.20;;;21.90;92.40;;;;;;5096428;28;20020;-77
2021/08/03 02:48:40;;;;;;;2.70;2.20;;;21.90;92.60;;;;;;5096647;28;20044;-75
2021/08/03 02:51:07;;;;;;;2.00;1.90;;;21.90;92.70;;;;;;5096338;28;20043;-78
2021/08/03 02:53:44;;;;;;;2.58;2.28;;;21.90;92.70;;;;;;5096838;28;20412;-75
2021/08/03 02:56:16;;;;;;;2.50;2.30;;;21.90;92.50;;;;;;5096864;28;20021;-77
2021/08/03 02:59:02;;;;;;;2.25;2.15;;;21.90;92.70;;;;;;5095552;28;20025;-77
2021/08/03 03:01:29;;;;;;;4.93;2.20;;;21.90;92.80;;;;;;5096192;28;20031;-77
2021/08/03 03:04:02;;;;;;;2.20;2.00;;;21.90;92.90;;;;;;5095524;28;20409;-81
2021/08/03 03:06:32;;;;;;;2.55;2.35;;;21.90;92.80;;;;;;5096435;28;20485;-78
2021/08/03 03:08:58;;;;;;;7.90;2.90;;;21.90;93.90;;;;;;5096488;28;20059;-77
2021/08/03 03:11:29;;;;;;;2.60;2.40;;;21.80;96.70;;;;;;5096649;28;20032;-74
2021/08/03 03:14:00;;;;;;;2.70;2.50;;;21.50;98.00;;;;;;5094041;28;20019;-74
2021/08/03 03:16:28;;;;;;;2.70;2.50;;;21.10;99.50;;;;;;5094578;28;20032;-74
2021/08/03 03:18:57;;;;;;;2.20;2.10;;;20.90;99.90;;;;;;5094110;28;20653;-74
2021/08/03 03:21:26;;;;;;;3.40;2.50;;;20.70;99.90;;;;;;5094979;28;20024;-75
2021/08/03 03:23:54;;;;;;;3.38;2.50;;;20.60;99.90;;;;;;5094707;28;20479;-74
2021/08/03 03:26:25;;;;;;;2.70;2.50;;;20.50;99.90;;;;;;5094281;28;20066;-75
2021/08/03 03:28:52;;;;;;;2.67;2.45;;;20.50;99.90;;;;;;5094362;28;20042;-76
2021/08/03 03:31:18;;;;;;;3.25;2.60;;;20.40;99.90;;;;;;5094234;28;20026;-81
2021/08/03 03:33:45;;;;;;;2.65;2.45;;;20.30;99.90;;;;;;5094750;28;20032;-80
2021/08/03 03:36:12;;;;;;;2.55;2.35;;;20.40;99.90;;;;;;5097720;28;20366;-76
2021/08/03 03:38:41;;;;;;;2.60;2.40;;;20.40;99.90;;;;;;5103139;28;20029;-77
2021/08/03 03:41:08;;;;;;;2.40;2.20;;;20.50;99.90;;;;;;5095308;28;20016;-78
2021/08/03 03:43:34;;;;;;;2.63;2.47;;;20.60;99.90;;;;;;5095840;28;20136;-75
2021/08/03 18:49:05;;;;;;;18.90;6.95;;;23.00;81.40;;;;;;5112159;27;20426;-78
2021/08/03 18:51:32;;;;;;;12.23;7.75;;;22.70;83.20;;;;;;5111757;28;20404;-78
2021/08/03 18:54:01;;;;;;;22.08;11.35;;;22.70;84.30;;;;;;5111936;28;20016;-80
2021/08/03 18:56:29;;;;;;;21.83;13.57;;;22.70;85.00;;;;;;5110712;28;20016;-87
2021/08/03 18:58:55;;;;;;;11.90;8.35;;;22.70;84.80;;;;;;5111485;28;20028;-83
2021/08/03 19:01:29;;;;;;;9.00;6.40;;;22.70;83.30;;;;;;5111307;28;20023;-82
2021/08/03 19:03:57;;;;;;;7.38;5.10;;;22.80;82.90;;;;;;5110326;28;20040;-84
2021/08/03 19:06:36;;;;;;;10.63;4.90;;;22.80;82.90;;;;;;5110040;28;20500;-83
2021/08/03 19:09:11;;;;;;;4.88;4.32;;;22.90;82.30;;;;;;5110024;28;20429;-82
2021/08/03 19:11:42;;;;;;;5.60;4.25;;;23.00;82.20;;;;;;5111094;28;20465;-82
2021/08/03 19:14:34;;;;;;;6.75;4.20;;;23.00;82.00;;;;;;5111229;28;20047;-82
2021/08/03 19:17:03;;;;;;;4.45;3.80;;;23.10;82.00;;;;;;5111309;28;20024;-82
2021/08/03 19:19:36;;;;;;;4.17;3.77;;;23.10;82.10;;;;;;5110933;28;20034;-82
2021/08/03 19:22:29;;;;;;;5.97;3.90;;;23.20;82.20;;;;;;5111417;28;20038;-83
2021/08/03 19:25:00;;;;;;;4.65;4.25;;;23.20;81.80;;;;;;5108530;28;20039;-81
2021/08/03 19:27:29;;;;;;;4.97;4.20;;;23.20;82.00;;;;;;5110908;28;20028;-81
2021/08/03 19:29:55;;;;;;;4.22;3.40;;;23.20;81.80;;;;;;5110936;28;20471;-81
2021/08/03 19:32:22;;;;;;;5.57;4.07;;;23.30;81.70;;;;;;5111151;28;20051;-80
2021/08/03 19:34:48;;;;;;;6.38;4.22;;;23.20;82.10;;;;;;5111128;28;20035;-80
2021/08/03 19:37:14;;;;;;;7.68;4.20;;;23.30;82.30;;;;;;5111208;28;20031;-80
2021/08/03 19:39:41;;;;;;;4.75;4.00;;;23.20;82.40;;;;;;5110805;28;20032;-80
2021/08/03 19:42:08;;;;;;;4.47;4.07;;;23.20;82.70;;;;;;5110985;28;20036;-82
2021/08/03 19:44:35;;;;;;;4.45;3.90;;;23.20;82.50;;;;;;5111183;28;20047;-82
2021/08/03 19:47:10;;;;;;;4.38;3.97;;;23.20;82.30;;;;;;5110399;28;20040;-81
2021/08/03 19:49:59;;;;;;;5.05;4.03;;;23.20;82.30;;;;;;5110546;28;20046;-81
2021/08/03 19:52:38;;;;;;;6.18;4.15;;;23.20;82.50;;;;;;5111092;28;20466;-82
2021/08/03 19:55:09;;;;;;;5.13;4.63;;;23.20;82.10;;;;;;5110916;28;20015;-83
2021/08/03 19:57:36;;;;;;;6.40;5.13;;;23.30;82.00;;;;;;5110413;28;20028;-81
2021/08/03 20:00:10;;;;;;;4.82;4.32;;;23.30;82.50;;;;;;5099100;28;20039;-80
2021/08/03 20:02:42;;;;;;;4.30;3.90;;;23.30;82.10;;;;;;5097085;28;20022;-81
2021/08/03 20:05:08;;;;;;;5.75;3.70;;;23.30;82.10;;;;;;5096596;28;20103;-81
2021/08/03 20:07:37;;;;;;;4.95;4.05;;;23.40;81.80;;;;;;5096994;28;20089;-81
2021/08/03 20:10:03;;;;;;;5.13;4.55;;;23.40;81.80;;;;;;5096713;28;20047;-81
2021/08/03 20:12:31;;;;;;;4.32;3.92;;;23.40;81.30;;;;;;5096420;28;20020;-82
2021/08/03 20:14:58;;;;;;;5.75;4.15;;;23.40;81.20;;;;;;5095121;28;20020;-81
2021/08/03 20:17:25;;;;;;;6.25;4.35;;;23.40;81.10;;;;;;5096593;28;20051;-81
2021/08/03 20:19:52;;;;;;;4.50;3.90;;;23.40;81.00;;;;;;5096305;28;20070;-81
2021/08/03 20:22:18;;;;;;;4.65;4.20;;;23.40;80.90;;;;;;5096196;28;20048;-81
2021/08/03 20:24:43;;;;;;;4.57;4.18;;;23.40;80.80;;;;;;5096640;28;20055;-81
2021/08/03 20:27:13;;;;;;;4.70;4.30;;;23.30;80.70;;;;;;5096272;28;20030;-81
2021/08/03 20:29:45;;;;;;;4.82;4.43;;;23.30;80.80;;;;;;5096732;28;20028;-81
2021/08/03 20:32:13;;;;;;;4.80;4.30;;;23.20;81.10;;;;;;5096024;28;20085;-81
2021/08/03 20:34:42;;;;;;;4.88;4.18;;;23.20;82.00;;;;;;5095982;28;20443;-81
2021/08/03 20:37:13;;;;;;;6.32;4.03;;;23.10;82.50;;;;;;5095837;28;20125;-81
2021/08/03 20:42:29;;;;;;;7.80;4.50;;;23.10;83.80;;;;;;5096061;28;20058;-81
2021/08/03 20:44:56;;;;;;;5.65;4.47;;;23.00;83.40;;;;;;5095625;28;20080;-81
2021/08/03 20:47:23;;;;;;;6.00;4.30;;;23.00;83.50;;;;;;5095773;28;20405;-81
2021/08/03 20:49:52;;;;;;;7.00;4.10;;;23.00;84.50;;;;;;5095608;28;20012;-81
2021/08/03 20:52:18;;;;;;;4.50;4.03;;;22.90;85.00;;;;;;5096232;28;20016;-81
2021/08/03 20:54:44;;;;;;;5.72;4.38;;;22.80;85.20;;;;;;5095452;28;20020;-81
2021/08/03 20:57:11;;;;;;;7.72;4.35;;;22.80;85.60;;;;;;5095517;28;20028;-81
2021/08/03 20:59:38;;;;;;;6.75;4.60;;;22.80;85.80;;;;;;5095687;28;20351;-81
2021/08/03 21:02:06;;;;;;;6.82;4.50;;;22.70;85.90;;;;;;5095360;28;20462;-81
2021/08/03 21:04:47;;;;;;;5.55;4.30;;;22.70;86.10;;;;;;5094048;28;20067;-81
2021/08/03 21:07:18;;;;;;;5.65;4.40;;;22.60;86.30;;;;;;5093925;28;20039;-81
2021/08/03 21:09:45;;;;;;;5.93;4.28;;;22.60;86.60;;;;;;5095321;28;20061;-81
2021/08/03 21:12:13;;;;;;;9.50;4.43;;;22.50;86.70;;;;;;5094195;28;20471;-81
2021/08/03 21:14:39;;;;;;;4.90;4.45;;;22.50;87.00;;;;;;5094854;28;20028;-81
2021/08/03 21:17:06;;;;;;;5.85;4.88;;;22.50;87.40;;;;;;5095008;28;20032;-81
2021/08/03 21:19:32;;;;;;;6.00;4.75;;;22.40;87.80;;;;;;5095329;28;20024;-81
2021/08/03 21:21:58;;;;;;;5.45;4.68;;;22.40;88.10;;;;;;5094937;28;20024;-81
2021/08/03 21:24:24;;;;;;;7.07;5.10;;;22.40;88.40;;;;;;5095217;28;20020;-81
2021/08/03 21:26:51;;;;;;;6.93;5.10;;;22.40;88.90;;;;;;5094782;28;20035;-81
2021/08/03 21:29:18;;;;;;;7.57;5.15;;;22.30;89.30;;;;;;5093636;28;20497;-81
2021/08/03 21:31:44;;;;;;;5.45;4.63;;;22.30;89.70;;;;;;5094815;28;20085;-81
2021/08/03 21:34:10;;;;;;;5.43;4.63;;;22.30;90.00;;;;;;5094717;28;20526;-81
2021/08/03 21:36:35;;;;;;;5.93;5.15;;;22.30;90.10;;;;;;5094702;28;20057;-81
2021/08/03 21:39:02;;;;;;;5.55;4.93;;;22.20;90.20;;;;;;5094620;28;20030;-81
2021/08/03 21:41:29;;;;;;;5.38;4.60;;;22.20;90.30;;;;;;5094610;28;20023;-81
2021/08/03 21:43:55;;;;;;;5.70;5.03;;;22.20;90.30;;;;;;5094802;28;20031;-82
2021/08/03 21:46:20;;;;;;;10.77;5.50;;;22.20;90.40;;;;;;5093202;28;20382;-82
2021/08/03 21:48:46;;;;;;;6.82;5.05;;;22.20;90.40;;;;;;5094179;28;20044;-82
2021/08/03 21:51:12;;;;;;;7.30;5.13;;;22.10;90.60;;;;;;5094686;28;20020;-82
2021/08/03 21:53:37;;;;;;;7.10;5.20;;;22.10;90.70;;;;;;5094392;28;20051;-82
2021/08/03 21:56:03;;;;;;;6.25;5.38;;;22.10;90.80;;;;;;5094347;28;20515;-81
2021/08/03 21:58:29;;;;;;;7.32;5.35;;;22.00;90.90;;;;;;5094554;28;20037;-81
2021/08/03 22:00:54;;;;;;;6.70;5.20;;;22.00;91.00;;;;;;5094525;28;20083;-81
2021/08/03 22:03:21;;;;;;;5.93;5.30;;;22.00;91.10;;;;;;5092954;28;20077;-81
2021/08/03 22:05:47;;;;;;;6.93;5.32;;;22.00;91.10;;;;;;5094147;28;20466;-81
2021/08/03 22:08:12;;;;;;;7.93;5.30;;;22.00;91.20;;;;;;5094036;28;20031;-81
2021/08/03 22:10:38;;;;;;;6.60;4.85;;;21.90;91.40;;;;;;5094674;28;20495;-81
2021/08/03 22:13:04;;;;;;;6.97;5.55;;;21.80;91.40;;;;;;5094066;28;20117;-81
2021/08/03 22:15:30;;;;;;;5.60;5.03;;;21.80;91.60;;;;;;5094312;28;20073;-82
2021/08/03 22:17:55;;;;;;;9.43;5.28;;;21.70;91.60;;;;;;5093933;28;20024;-82
2021/08/03 22:20:21;;;;;;;9.48;5.10;;;21.70;91.60;;;;;;5093965;28;20059;-81
2021/08/03 22:22:47;;;;;;;7.55;4.90;;;21.70;91.70;;;;;;5093956;28;20036;-81
2021/08/03 22:25:13;;;;;;;7.80;5.82;;;21.70;91.90;;;;;;5093821;28;20024;-81
2021/08/03 22:27:39;;;;;;;6.32;5.03;;;21.70;92.00;;;;;;5092456;28;20032;-81
2021/08/03 22:30:05;;;;;;;6.97;5.57;;;21.60;92.00;;;;;;5094043;28;20040;-81
2021/08/03 22:32:31;;;;;;;6.22;5.10;;;21.60;92.00;;;;;;5094104;28;20027;-81
2021/08/03 22:34:58;;;;;;;7.72;5.22;;;21.60;92.10;;;;;;5094056;28;20073;-81
2021/08/03 22:37:23;;;;;;;6.35;5.45;;;21.50;92.20;;;;;;5094144;28;20123;-81
2021/08/03 22:39:49;;;;;;;5.97;5.35;;;21.50;92.20;;;;;;5094125;28;20510;-81
2021/08/03 22:42:14;;;;;;;7.95;5.55;;;21.50;92.20;;;;;;5094228;28;20028;-81
2021/08/03 22:44:40;;;;;;;6.47;4.93;;;21.50;92.30;;;;;;5093830;28;20025;-81
2021/08/03 22:47:06;;;;;;;10.30;5.10;;;21.50;92.40;;;;;;5093423;28;20131;-81
2021/08/03 22:49:32;;;;;;;8.00;5.40;;;21.50;92.60;;;;;;5094006;28;20020;-81
2021/08/03 22:51:58;;;;;;;5.43;4.90;;;21.50;92.40;;;;;;5093697;28;20120;-81
2021/08/03 22:54:24;;;;;;;6.40;5.72;;;21.40;92.50;;;;;;5094002;28;20048;-81
2021/08/03 22:56:50;;;;;;;6.55;5.50;;;21.50;92.60;;;;;;5093666;28;20424;-82
2021/08/03 22:59:16;;;;;;;7.18;6.00;;;21.50;92.60;;;;;;5093570;28;20016;-81
2021/08/03 23:01:41;;;;;;;7.63;5.35;;;21.40;92.60;;;;;;5093893;28;20374;-81
2021/08/03 23:04:07;;;;;;;7.70;5.60;;;21.40;92.70;;;;;;5093867;28;20466;-82
2021/08/03 23:06:33;;;;;;;6.50;5.80;;;21.30;92.70;;;;;;5093575;28;20098;-82
2021/08/03 23:08:58;;;;;;;8.02;5.75;;;21.30;92.70;;;;;;5093779;28;20458;-82
2021/08/03 23:11:24;;;;;;;8.55;6.10;;;21.30;92.60;;;;;;5093525;28;20031;-82
2021/08/03 23:13:50;;;;;;;7.05;6.20;;;21.30;92.70;;;;;;5092209;28;20020;-82
2021/08/03 23:16:16;;;;;;;9.18;6.22;;;21.30;92.70;;;;;;5093476;28;20028;-82
2021/08/03 23:18:41;;;;;;;12.00;6.93;;;21.30;92.80;;;;;;5093451;28;20027;-81
2021/08/03 23:21:07;;;;;;;8.70;6.28;;;21.20;92.90;;;;;;5093733;28;20024;-82
2021/08/03 23:23:33;;;;;;;7.45;6.68;;;21.10;92.90;;;;;;5093457;28;20093;-82
2021/08/03 23:25:59;;;;;;;8.88;6.97;;;21.10;92.90;;;;;;5093358;28;20420;-82
2021/08/03 23:28:25;;;;;;;8.65;6.72;;;21.10;93.00;;;;;;5093299;28;20024;-82
2021/08/03 23:30:52;;;;;;;12.00;7.18;;;21.10;93.10;;;;;;5093306;28;20074;-82
2021/08/03 23:33:18;;;;;;;12.63;7.45;;;21.00;93.20;;;;;;5093351;28;20016;-82
2021/08/03 23:35:44;;;;;;;10.15;7.70;;;21.00;93.30;;;;;;5097146;28;20074;-82
2021/08/03 23:38:10;;;;;;;10.25;7.03;;;21.00;93.30;;;;;;5097110;28;20025;-82
2021/08/03 23:40:35;;;;;;;9.20;7.03;;;21.00;93.20;;;;;;5097351;28;20059;-82
2021/08/03 23:43:01;;;;;;;9.00;7.20;;;21.00;93.30;;;;;;5097293;28;20028;-82
2021/08/03 23:45:27;;;;;;;8.70;7.20;;;21.00;93.30;;;;;;5097224;28;20032;-82
2021/08/03 23:47:53;;;;;;;12.68;7.45;;;20.90;93.30;;;;;;5096807;28;20040;-82
2021/08/03 23:50:19;;;;;;;9.68;7.40;;;20.90;93.40;;;;;;5096812;28;20459;-82
2021/08/03 23:52:44;;;;;;;9.80;8.07;;;20.90;93.40;;;;;;5096867;28;20060;-82
2021/08/03 23:55:10;;;;;;;10.27;8.07;;;20.90;93.40;;;;;;5095510;28;20031;-82
2021/08/03 23:57:36;;;;;;;8.23;6.75;;;20.80;93.50;;;;;;5095422;28;20031;-82
